Time;durP1;ratioP1;P1;durP2;ratioP2;P2;SDS_P1;SDS_P2;PMS_P1;PMS_P2;Temp;Humidity;BMP_temperature;BMP_pressure;BME280_temperature;BME280_humidity;BME280_pressure;Samples;Min_cycle;Max_cycle;Signal;HPM_P1;HPM_P2
2023/01/01 00:03:05;;;;;;;7.67;3.87;;;;;;;14.75;85.71;100132.95;2867385;82;21542;-94
2023/01/01 00:07:07;;;;;;;8.15;4.60;;;;;;;14.79;85.28;100137.50;2878174;81;21090;-94
2023/01/01 00:11:10;;;;;;;6.37;4.03;;;;;;;14.83;85.10;100126.80;2878068;82;21946;-94
2023/01/01 00:15:12;;;;;;;5.50;4.55;;;;;;;14.75;85.07;100128.92;2795218;84;21107;-95
2023/01/01 00:19:13;;;;;;;6.20;3.33;;;;;;;14.75;85.09;100137.47;2855588;81;21051;-95
2023/01/01 00:23:15;;;;;;;5.08;3.50;;;;;;;14.71;85.06;100131.06;2832806;81;21060;-95
2023/01/01 00:27:16;;;;;;;7.53;4.20;;;;;;;14.60;85.36;100133.98;2805116;83;20992;-94
2023/01/01 00:31:21;;;;;;;14.87;5.70;;;;;;;14.56;85.27;100146.83;2819139;82;21055;-95
2023/01/01 00:35:26;;;;;;;10.30;6.15;;;;;;;14.48;85.37;100149.45;2854895;81;21087;-94
2023/01/01 00:39:28;;;;;;;16.40;6.85;;;;;;;14.50;85.09;100154.15;2823159;82;21066;-94
2023/01/01 00:43:30;;;;;;;9.55;5.90;;;;;;;14.51;85.00;100158.98;2783463;82;21039;-94
2023/01/01 00:47:31;;;;;;;10.90;7.17;;;;;;;14.54;85.07;100161.35;2807920;82;21060;-95
2023/01/01 00:51:33;;;;;;;12.45;8.05;;;;;;;14.54;84.56;100163.55;2822580;82;21071;-95
2023/01/01 00:55:34;;;;;;;10.80;6.87;;;;;;;14.63;83.99;100160.92;2826443;82;20995;-94
2023/01/01 00:59:36;;;;;;;6.53;4.40;;;;;;;14.73;83.95;100171.56;2813247;82;21084;-95
2023/01/01 01:03:39;;;;;;;4.15;3.42;;;;;;;14.74;84.01;100169.23;2852599;82;21091;-95
2023/01/01 01:07:41;;;;;;;7.50;5.55;;;;;;;14.67;84.64;100170.34;2844391;82;20977;-95
2023/01/01 01:11:42;;;;;;;4.70;3.52;;;;;;;14.69;84.00;100181.22;2837695;82;21500;-95
2023/01/01 01:15:43;;;;;;;5.67;3.67;;;;;;;14.64;84.54;100182.19;2835938;82;21039;-95
2023/01/01 01:19:45;;;;;;;5.37;4.40;;;;;;;14.66;83.64;100181.53;2911669;80;21018;-96
2023/01/01 01:23:49;;;;;;;5.40;3.40;;;;;;;14.70;83.88;100183.41;2961299;79;21530;-94
2023/01/01 01:27:50;;;;;;;6.40;3.87;;;;;;;14.74;83.68;100182.62;2923007;79;21285;-94
2023/01/01 01:31:52;;;;;;;3.30;2.35;;;;;;;14.74;83.22;100177.27;2905912;79;21071;-94
2023/01/01 01:35:53;;;;;;;3.17;2.50;;;;;;;14.79;82.58;100185.69;2916339;79;21003;-94
2023/01/01 01:39:54;;;;;;;4.17;2.83;;;;;;;14.85;81.87;100189.93;2926802;79;21050;-95
2023/01/01 01:44:00;;;;;;;4.22;3.12;;;;;;;14.94;80.60;100193.50;2934533;80;21011;-95
2023/01/01 01:48:01;;;;;;;2.70;2.50;;;;;;;15.06;79.84;100203.46;2905238;80;21090;-95
2023/01/01 01:52:03;;;;;;;3.83;2.22;;;;;;;15.17;78.45;100194.80;2875232;80;21040;-95
2023/01/01 01:56:13;;;;;;;2.90;1.62;;;;;;;15.38;76.61;100194.44;2976049;79;21606;-96
2023/01/01 02:00:15;;;;;;;2.52;1.65;;;;;;;15.73;74.93;100189.05;2933497;80;21039;-95
2023/01/01 02:04:17;;;;;;;2.75;1.85;;;;;;;16.01;74.18;100201.74;2966866;79;20999;-95
2023/01/01 02:08:20;;;;;;;1.40;1.00;;;;;;;16.12;73.17;100189.37;2909818;80;21012;-94
2023/01/01 02:12:21;;;;;;;2.47;1.42;;;;;;;16.25;72.34;100193.41;2927884;80;21041;-96
2023/01/01 02:16:46;;;;;;;2.67;1.80;;;;;;;16.38;71.72;100202.30;2919302;80;21035;-95
2023/01/01 02:21:25;;;;;;;2.55;1.25;;;;;;;16.53;70.67;100211.91;2952239;80;21090;-95
2023/01/01 02:25:55;;;;;;;1.82;1.02;;;;;;;16.71;69.91;100210.39;2949953;80;21087;-94
2023/01/01 02:30:06;;;;;;;1.67;0.98;;;;;;;16.84;68.72;100213.91;2960993;80;21053;-95
2023/01/01 02:34:12;;;;;;;1.32;1.22;;;;;;;16.96;67.75;100223.31;2922564;79;21050;-95
2023/01/01 02:38:44;;;;;;;1.77;1.35;;;;;;;17.07;66.99;100222.16;2954863;80;21138;-95
2023/01/01 02:42:46;;;;;;;3.00;1.27;;;;;;;17.13;66.46;100222.80;2927120;80;21063;-95
2023/01/01 02:46:48;;;;;;;1.45;1.05;;;;;;;17.22;66.44;100226.31;2950098;79;20952;-94
2023/01/01 02:50:51;;;;;;;2.85;1.17;;;;;;;17.19;66.34;100229.84;2923426;79;21047;-95
2023/01/01 02:55:03;;;;;;;1.95;1.00;;;;;;;17.15;65.21;100237.43;2969442;79;21039;-94
2023/01/01 03:04:01;;;;;;;5.95;1.50;;;;;;;17.20;65.16;100251.19;2852197;82;21050;-95
2023/01/01 03:08:13;;;;;;;2.52;1.22;;;;;;;17.19;64.59;100248.16;2928562;80;21617;-95
2023/01/01 03:12:38;;;;;;;5.58;1.72;;;;;;;17.12;65.20;100244.49;2916217;80;21632;-95
2023/01/01 03:17:00;;;;;;;0.93;0.70;;;;;;;17.03;65.17;100252.20;2921185;79;21031;-94
2023/01/01 03:21:04;;;;;;;2.12;1.20;;;;;;;16.94;65.69;100254.88;2914507;80;21039;-95
2023/01/01 03:25:11;;;;;;;7.10;1.30;;;;;;;16.81;66.09;100257.22;2917951;79;21016;-96
2023/01/01 03:29:13;;;;;;;2.42;1.57;;;;;;;16.78;65.86;100250.33;2962118;79;21358;-95
2023/01/01 03:33:26;;;;;;;1.65;1.47;;;;;;;16.73;66.05;100246.49;2857436;80;21055;-96
2023/01/01 03:37:30;;;;;;;4.37;2.87;;;;;;;16.62;65.94;100249.83;2951183;79;21035;-96
2023/01/01 03:41:52;;;;;;;2.67;1.92;;;;;;;16.54;67.91;100248.48;2942615;80;21035;-96
2023/01/01 03:45:56;;;;;;;3.55;1.75;;;;;;;16.26;68.84;100254.13;2921798;79;21023;-96
2023/01/01 03:49:59;;;;;;;3.70;1.70;;;;;;;16.05;69.35;100258.09;2927164;80;21060;-96
2023/01/01 03:54:09;;;;;;;3.85;2.60;;;;;;;15.89;70.17;100254.00;2839130;83;21059;-96
2023/01/01 03:58:47;;;;;;;4.08;2.20;;;;;;;15.78;69.83;100257.29;2959048;79;21043;-95
2023/01/01 04:03:03;;;;;;;3.20;1.60;;;;;;;15.69;70.45;100260.44;2945121;79;21531;-95
2023/01/01 04:07:05;;;;;;;6.03;3.08;;;;;;;15.65;69.83;100258.22;2907455;80;21082;-95
2023/01/01 04:15:41;;;;;;;13.70;5.80;;;;;;;15.67;69.56;100260.23;2911978;80;21609;-95
2023/01/01 04:19:42;;;;;;;7.60;3.08;;;;;;;15.66;69.47;100251.86;2917371;79;21024;-95
2023/01/01 04:23:44;;;;;;;8.28;2.47;;;;;;;15.62;70.06;100262.05;2912896;80;21082;-95
2023/01/01 04:27:45;;;;;;;4.08;2.12;;;;;;;15.59;69.59;100256.19;2937521;80;21074;-95
2023/01/01 04:31:47;;;;;;;5.80;3.05;;;;;;;15.53;69.91;100267.90;2891598;80;20976;-96
2023/01/01 04:35:49;;;;;;;5.47;2.75;;;;;;;15.52;70.38;100264.02;2937605;80;21019;-95
2023/01/01 04:39:51;;;;;;;5.83;2.30;;;;;;;15.50;68.75;100258.81;2923166;79;21043;-96
2023/01/01 04:43:52;;;;;;;4.85;2.10;;;;;;;15.58;69.07;100266.58;2950079;79;21004;-95
2023/01/01 04:47:54;;;;;;;6.53;3.62;;;;;;;15.55;68.35;100267.72;2944249;79;21051;-95
2023/01/01 04:51:55;;;;;;;10.03;3.87;;;;;;;15.55;68.21;100265.89;2889368;80;21669;-96
2023/01/01 04:56:07;;;;;;;6.78;4.30;;;;;;;15.54;68.35;100274.94;2917590;80;21007;-96
2023/01/01 05:00:09;;;;;;;6.45;2.75;;;;;;;15.51;68.60;100275.75;2922405;80;21051;-95
2023/01/01 05:04:14;;;;;;;12.60;3.52;;;;;;;15.40;69.97;100287.06;2926287;80;21030;-95
2023/01/01 05:08:15;;;;;;;4.97;2.87;;;;;;;15.31;70.22;100287.16;2953596;79;20968;-95
2023/01/01 05:12:17;;;;;;;7.35;3.40;;;;;;;15.14;70.90;100292.42;2921419;79;21020;-95
2023/01/01 05:16:22;;;;;;;3.45;2.52;;;;;;;15.04;70.73;100298.36;2890123;80;21039;-95
2023/01/01 05:20:23;;;;;;;9.37;4.53;;;;;;;15.01;70.45;100287.95;2901817;80;20996;-96
2023/01/01 05:24:25;;;;;;;12.03;4.00;;;;;;;15.05;69.19;100289.33;2914850;80;21028;-95
2023/01/01 05:28:26;;;;;;;9.85;6.40;;;;;;;15.14;69.74;100288.41;2935560;79;21598;-95
2023/01/01 05:32:28;;;;;;;7.80;4.95;;;;;;;15.18;70.15;100295.13;2912531;80;21053;-95
2023/01/01 05:36:37;;;;;;;12.37;4.62;;;;;;;15.09;70.90;100297.39;2931252;80;21039;-95
2023/01/01 05:40:39;;;;;;;8.25;5.17;;;;;;;14.94;71.68;100297.10;2867811;80;21007;-95
2023/01/01 05:44:41;;;;;;;9.33;4.78;;;;;;;14.80;72.04;100303.84;2863720;80;21056;-95
2023/01/01 05:48:43;;;;;;;7.25;4.78;;;;;;;14.72;72.44;100309.96;2862681;80;21009;-94
2023/01/01 05:52:44;;;;;;;10.10;4.92;;;;;;;14.67;72.77;100310.38;2887146;80;21714;-94
2023/01/01 05:56:46;;;;;;;9.45;3.98;;;;;;;14.55;73.21;100314.28;2892808;80;21329;-94
2023/01/01 06:00:47;;;;;;;6.70;4.33;;;;;;;14.44;73.82;100317.98;2928767;79;21085;-95
2023/01/01 06:04:49;;;;;;;9.33;4.97;;;;;;;14.32;74.61;100324.56;2907059;79;21067;-94
2023/01/01 06:08:54;;;;;;;4.83;3.33;;;;;;;14.13;75.36;100327.17;2951949;80;21019;-94
2023/01/01 06:12:58;;;;;;;9.25;3.98;;;;;;;14.00;76.05;100319.48;2942164;80;21035;-94
2023/01/01 06:17:00;;;;;;;6.25;4.58;;;;;;;13.95;76.09;100323.11;2915849;80;21024;-95
2023/01/01 06:21:08;;;;;;;7.97;3.83;;;;;;;13.92;76.23;100330.09;2912730;79;21020;-95
2023/01/01 06:25:10;;;;;;;4.72;3.55;;;;;;;13.90;76.57;100335.23;2865530;80;21006;-95
2023/01/01 06:29:12;;;;;;;5.92;3.85;;;;;;;14.00;76.18;100332.03;2877776;79;21106;-96
2023/01/01 06:33:13;;;;;;;6.37;3.10;;;;;;;13.98;76.46;100328.67;2927171;79;21569;-96
2023/01/01 06:37:15;;;;;;;4.67;3.35;;;;;;;13.97;76.28;100335.01;2951987;79;21043;-96
2023/01/01 06:41:20;;;;;;;4.72;3.30;;;;;;;13.96;76.32;100333.33;2879027;80;21376;-95
2023/01/01 06:45:22;;;;;;;5.53;3.67;;;;;;;14.06;76.21;100327.42;2867124;81;21088;-96
2023/01/01 06:49:23;;;;;;;4.35;3.25;;;;;;;14.09;75.69;100330.31;2905306;80;21063;-96
2023/01/01 06:53:26;;;;;;;6.60;3.75;;;;;;;14.12;76.10;100333.51;2936687;80;21547;-95
2023/01/01 06:57:27;;;;;;;9.10;4.12;;;;;;;14.12;76.13;100340.20;2922957;80;21608;-96
2023/01/01 07:01:32;;;;;;;7.37;3.42;;;;;;;14.13;76.56;100339.72;2945748;79;21051;-96
2023/01/01 07:05:33;;;;;;;6.83;4.72;;;;;;;14.07;76.83;100357.70;2939440;79;21019;-96
2023/01/01 07:09:35;;;;;;;7.83;3.67;;;;;;;13.96;77.09;100354.72;2925662;80;21031;-96
2023/01/01 07:13:36;;;;;;;5.25;3.83;;;;;;;13.90;77.08;100361.97;2935703;79;21074;-95
2023/01/01 07:17:38;;;;;;;10.35;4.40;;;;;;;13.91;77.28;100370.33;2929297;80;21542;-96
2023/01/01 07:21:44;;;;;;;4.62;3.30;;;;;;;13.96;77.21;100363.56;2954885;79;21035;-96
2023/01/01 07:25:50;;;;;;;;;;;;;;;14.04;77.40;100366.85;2947171;80;21059;-96
2023/01/01 07:29:51;;;;;;;6.57;4.07;;;;;;;14.03;77.83;100363.83;2945233;79;20126;-96
2023/01/01 07:33:53;;;;;;;9.88;6.05;;;;;;;14.06;77.98;100368.88;2892814;80;21044;-94
2023/01/01 07:37:54;;;;;;;12.93;6.58;;;;;;;14.07;78.43;100375.91;2962658;79;21040;-95
2023/01/01 07:41:56;;;;;;;12.00;6.20;;;;;;;14.14;78.57;100374.33;2945759;79;21074;-95
2023/01/01 07:45:59;;;;;;;9.55;6.83;;;;;;;14.14;78.94;100377.00;2961747;79;21047;-96
2023/01/01 07:50:00;;;;;;;10.43;6.22;;;;;;;14.13;79.27;100390.54;2947567;80;21036;-96
2023/01/01 07:54:02;;;;;;;10.30;5.53;;;;;;;14.16;79.34;100386.74;2931254;80;21106;-95
2023/01/01 07:58:03;;;;;;;11.38;4.55;;;;;;;14.23;79.51;100394.52;2881112;79;21535;-96
2023/01/01 08:02:05;;;;;;;8.78;3.50;;;;;;;14.30;78.92;100388.91;2950221;79;20983;-95
2023/01/01 08:06:10;;;;;;;6.60;4.25;;;;;;;14.39;78.49;100395.21;2836594;82;21575;-95
2023/01/01 08:10:12;;;;;;;7.03;4.05;;;;;;;14.54;77.47;100395.07;2925791;80;21016;-94
2023/01/01 08:14:13;;;;;;;17.32;4.70;;;;;;;14.67;77.12;100396.05;2948025;79;21075;-94
2023/01/01 08:18:15;;;;;;;7.00;4.15;;;;;;;14.80;76.65;100384.17;2955028;79;21012;-92
2023/01/01 08:22:16;;;;;;;6.45;3.40;;;;;;;14.97;76.13;100387.38;2964830;79;21018;-94
2023/01/01 08:26:29;;;;;;;5.08;3.70;;;;;;;15.10;75.18;100388.81;2941575;79;21015;-94
2023/01/01 08:30:30;;;;;;;11.53;4.35;;;;;;;15.20;75.57;100400.80;2943504;79;21007;-94
2023/01/01 08:34:32;;;;;;;7.45;3.85;;;;;;;15.28;75.37;100406.24;2929836;80;21063;-94
2023/01/01 08:38:33;;;;;;;8.03;4.12;;;;;;;15.35;75.34;100413.17;2883325;80;21059;-94
2023/01/01 08:42:34;;;;;;;11.03;4.53;;;;;;;15.50;74.86;100410.27;2956569;79;21036;-94
2023/01/01 08:46:36;;;;;;;6.28;3.92;;;;;;;15.65;73.69;100424.46;2912329;80;21055;-93
2023/01/01 08:50:37;;;;;;;7.35;3.70;;;;;;;15.80;72.89;100418.89;2920348;79;20984;-93
2023/01/01 08:54:39;;;;;;;11.43;5.10;;;;;;;15.92;71.73;100434.77;2947411;79;21038;-96
2023/01/01 08:58:41;;;;;;;6.80;4.65;;;;;;;16.08;70.84;100440.20;2958062;79;21519;-96
2023/01/01 09:02:43;;;;;;;7.35;5.15;;;;;;;16.18;70.93;100432.56;2972519;79;20976;-96
2023/01/01 09:06:45;;;;;;;9.28;4.65;;;;;;;16.22;70.82;100437.47;2921925;80;21118;-94
2023/01/01 09:10:47;;;;;;;11.63;6.58;;;;;;;16.27;70.83;100449.04;2946369;79;21094;-94
2023/01/01 09:14:48;;;;;;;7.58;4.62;;;;;;;16.31;71.00;100454.94;2929565;80;21016;-95
2023/01/01 09:18:50;;;;;;;6.78;4.45;;;;;;;16.32;71.16;100449.43;2921231;79;20992;-94
2023/01/01 09:22:51;;;;;;;4.20;3.80;;;;;;;16.28;71.20;100452.06;2963145;79;20972;-94
2023/01/01 09:26:53;;;;;;;6.87;4.30;;;;;;;16.33;71.45;100451.11;2951600;77;21030;-96
2023/01/01 09:30:54;;;;;;;7.47;4.67;;;;;;;16.27;71.95;100451.73;2948397;78;21055;-96
2023/01/01 09:34:59;;;;;;;8.35;5.35;;;;;;;16.33;72.92;100461.84;2931893;79;22299;-92
2023/01/01 09:39:00;;;;;;;7.60;4.58;;;;;;;16.36;72.85;100462.01;2931218;80;21027;-96
2023/01/01 09:43:36;;;;;;;5.62;3.75;;;;;;;16.36;73.07;100465.55;2949360;80;21106;-96
2023/01/01 09:47:44;;;;;;;8.43;4.90;;;;;;;16.37;73.58;100473.09;2966431;79;20984;-96
2023/01/01 09:51:51;;;;;;;7.42;4.10;;;;;;;16.42;74.08;100466.76;2969094;79;21134;-95
2023/01/01 09:55:59;;;;;;;5.15;3.62;;;;;;;16.48;73.75;100458.55;2976208;79;21015;-96
2023/01/01 10:00:00;;;;;;;5.25;3.87;;;;;;;16.56;72.99;100450.55;2970016;79;21233;-96
2023/01/01 10:04:31;;;;;;;7.17;4.30;;;;;;;16.66;72.69;100450.41;2949985;79;21035;-94
2023/01/01 10:08:57;;;;;;;7.35;5.00;;;;;;;16.70;72.27;100451.77;2917486;80;21031;-96
2023/01/01 10:13:28;;;;;;;6.65;4.95;;;;;;;16.81;71.71;100453.31;2949243;79;21696;-96
2023/01/01 10:17:37;;;;;;;7.95;3.98;;;;;;;16.86;72.19;100450.97;2945188;79;21059;-96
2023/01/01 10:21:43;;;;;;;8.48;4.83;;;;;;;16.82;72.48;100447.80;2957451;79;21106;-95
2023/01/01 10:25:44;;;;;;;6.58;4.50;;;;;;;16.89;73.55;100452.50;2926746;80;21000;-92
2023/01/01 10:29:49;;;;;;;8.13;4.62;;;;;;;16.87;73.43;100449.97;2927896;80;21004;-94
2023/01/01 10:33:51;;;;;;;7.87;3.95;;;;;;;16.90;74.13;100466.28;2956733;79;21155;-94
2023/01/01 10:37:52;;;;;;;5.90;5.30;;;;;;;16.96;74.73;100466.95;2935142;79;21027;-96
2023/01/01 10:41:56;;;;;;;4.75;4.33;;;;;;;17.05;75.08;100463.83;2912121;80;21377;-95
2023/01/01 10:46:01;;;;;;;4.95;4.05;;;;;;;17.15;75.65;100463.19;2940878;79;20964;-96
2023/01/01 10:50:06;;;;;;;5.37;3.57;;;;;;;17.31;72.17;100461.02;2919209;80;21013;-95
2023/01/01 10:54:28;;;;;;;5.20;3.73;;;;;;;17.56;69.31;100451.14;2914449;80;21330;-96
2023/01/01 10:58:49;;;;;;;3.98;3.52;;;;;;;17.76;69.26;100457.52;2966141;80;21059;-96
2023/01/01 11:03:18;;;;;;;7.95;3.50;;;;;;;17.92;67.54;100462.56;2952145;79;20984;-95
2023/01/01 11:07:32;;;;;;;3.75;2.65;;;;;;;17.99;64.68;100450.95;2912759;79;21004;-96
2023/01/01 11:12:00;;;;;;;6.28;2.65;;;;;;;18.13;65.71;100456.16;2926659;80;21079;-94
2023/01/01 11:16:01;;;;;;;3.50;3.15;;;;;;;18.20;66.81;100448.73;2937643;80;21623;-93
2023/01/01 11:20:06;;;;;;;11.48;2.75;;;;;;;18.25;65.89;100451.75;2930620;79;21074;-92
2023/01/01 11:24:21;;;;;;;5.10;3.05;;;;;;;18.29;64.11;100449.56;2929483;79;21998;-93
2023/01/01 11:28:22;;;;;;;22.63;3.13;;;;;;;18.34;62.69;100445.83;2956764;79;21032;-94
2023/01/01 11:32:34;;;;;;;6.45;3.27;;;;;;;18.45;63.66;100444.62;2952309;80;21052;-94
2023/01/01 11:36:36;;;;;;;14.43;3.20;;;;;;;18.49;63.93;100449.48;2957734;79;21031;-95
2023/01/01 11:40:46;;;;;;;4.72;2.60;;;;;;;18.43;63.74;100441.27;2844224;79;20985;-92
2023/01/01 11:45:18;;;;;;;6.47;3.42;;;;;;;18.43;63.73;100434.03;2883616;80;20980;-93
2023/01/01 11:49:26;;;;;;;10.08;2.80;;;;;;;18.38;62.64;100433.20;2803033;82;21066;-92
2023/01/01 11:53:32;;;;;;;5.70;3.05;;;;;;;18.30;62.91;100439.97;2947006;79;20985;-91
2023/01/01 11:57:34;;;;;;;11.05;3.10;;;;;;;18.22;63.76;100435.94;2954669;79;20992;-91
2023/01/01 12:01:47;;;;;;;14.45;2.80;;;;;;;18.10;61.88;100429.59;2947328;80;21035;-92
2023/01/01 12:06:11;;;;;;;13.08;4.40;;;;;;;18.06;61.29;100424.20;2950480;80;21023;-92
2023/01/01 12:10:27;;;;;;;4.72;2.20;;;;;;;18.06;63.22;100424.20;2826124;82;21000;-92
2023/01/01 12:14:43;;;;;;;6.40;3.08;;;;;;;18.01;62.58;100430.58;2817848;84;21005;-93
2023/01/01 12:19:06;;;;;;;7.03;3.67;;;;;;;18.02;61.69;100426.91;2859372;82;21016;-92
2023/01/01 12:23:10;;;;;;;6.00;3.08;;;;;;;17.97;62.56;100431.94;2860246;82;21015;-91
2023/01/01 12:27:40;;;;;;;5.30;3.22;;;;;;;17.84;62.61;100431.13;2798694;82;21060;-92
2023/01/01 12:32:04;;;;;;;29.92;4.92;;;;;;;17.84;62.99;100433.81;2865526;82;21063;-92
2023/01/01 12:36:45;;;;;;;6.53;2.52;;;;;;;17.81;64.54;100432.28;2805077;82;21068;-92
2023/01/01 12:40:57;;;;;;;6.67;3.95;;;;;;;17.78;66.16;100437.16;2861489;82;21375;-92
2023/01/01 12:45:04;;;;;;;7.72;3.77;;;;;;;17.70;65.88;100445.58;2939000;79;21075;-92
2023/01/01 12:49:28;;;;;;;4.97;3.45;;;;;;;17.68;65.36;100446.75;2937540;79;21043;-92
2023/01/01 12:53:54;;;;;;;8.73;3.50;;;;;;;17.69;66.20;100450.63;2938785;80;21078;-93
2023/01/01 12:58:14;;;;;;;8.83;3.33;;;;;;;17.63;66.86;100452.66;2954755;79;20980;-93
2023/01/01 13:02:26;;;;;;;7.55;3.65;;;;;;;17.57;65.55;100445.23;2921379;79;21004;-95
2023/01/01 13:06:44;;;;;;;4.20;2.25;;;;;;;17.49;65.31;100446.10;2930323;80;21023;-94
2023/01/01 13:10:49;;;;;;;5.95;3.27;;;;;;;17.52;65.68;100449.80;2954516;80;21058;-95
2023/01/01 13:29:23;;;;;;;6.33;4.03;;;;;;;17.82;64.87;100464.91;3027831;77;22147;-64
2023/01/01 13:33:29;;;;;;;18.35;6.25;;;;;;;17.78;64.15;100472.98;2992053;78;20988;-61
2023/01/01 13:37:43;;;;;;;6.75;3.42;;;;;;;17.80;65.44;100484.94;2954889;79;21564;-64
2023/01/01 13:53:28;;;;;;;3.98;3.35;;;;;;;17.87;63.57;100482.39;2948674;80;22220;-82
2023/01/01 13:57:53;;;;;;;10.88;4.95;;;;;;;17.82;63.19;100489.13;2903030;81;21024;-82
2023/01/01 14:02:03;;;;;;;7.78;4.78;;;;;;;17.62;63.73;100483.25;2907135;80;21039;-82
2023/01/01 14:06:09;;;;;;;7.47;4.35;;;;;;;17.47;64.16;100486.26;2893066;80;21011;-82
2023/01/01 14:10:30;;;;;;;18.77;9.98;;;;;;;17.27;64.47;100480.67;2898506;80;21542;-82
2023/01/01 14:14:33;;;;;;;11.15;7.78;;;;;;;17.12;64.96;100476.97;2890169;81;21031;-82
2023/01/01 14:18:51;;;;;;;18.50;12.18;;;;;;;16.90;65.33;100492.66;2854226;81;21523;-82
2023/01/01 14:22:52;;;;;;;23.98;16.85;;;;;;;16.72;66.08;100497.28;2830413;81;21648;-82
2023/01/01 14:26:54;;;;;;;21.97;11.25;;;;;;;16.48;67.15;100498.81;2847154;83;21047;-82
2023/01/01 14:30:58;;;;;;;13.90;8.95;;;;;;;16.30;67.65;100507.77;2805419;83;21551;-82
2023/01/01 14:35:01;;;;;;;21.40;9.50;;;;;;;16.06;68.70;100504.44;2851308;83;21063;-83
2023/01/01 14:39:02;;;;;;;17.65;13.95;;;;;;;15.94;68.82;100506.53;2857864;81;21018;-83
2023/01/01 14:43:06;;;;;;;21.97;13.78;;;;;;;15.83;68.68;100507.08;2876281;81;21072;-83
2023/01/01 14:47:28;;;;;;;27.17;16.57;;;;;;;15.81;68.43;100522.48;2890756;81;21067;-82
2023/01/01 14:51:31;;;;;;;53.05;30.97;;;;;;;15.77;68.64;100530.50;2820669;81;21050;-82
2023/01/01 14:55:43;;;;;;;33.90;20.05;;;;;;;15.65;68.72;100543.78;2791277;83;21035;-82
2023/01/01 14:59:48;;;;;;;33.85;21.35;;;;;;;15.62;69.01;100550.28;2807280;83;21015;-83
2023/01/01 15:04:18;;;;;;;19.83;11.47;;;;;;;15.44;70.07;100556.98;2837583;83;21047;-82
2023/01/01 15:08:24;;;;;;;27.40;16.40;;;;;;;15.23;71.15;100562.59;2730580;84;21147;-94
2023/01/01 15:12:28;;;;;;;24.67;16.65;;;;;;;15.12;71.00;100563.16;2717094;86;21084;-94
2023/01/01 15:16:30;;;;;;;28.10;18.23;;;;;;;15.01;70.94;100562.52;2683424;87;21067;-91
2023/01/01 15:20:32;;;;;;;24.98;17.30;;;;;;;14.90;71.48;100563.55;2675417;87;21438;-95
2023/01/01 15:24:36;;;;;;;20.12;15.20;;;;;;;14.83;71.48;100580.70;2717054;86;21051;-95
2023/01/01 15:28:41;;;;;;;22.02;13.58;;;;;;;14.80;71.47;100587.17;2711603;86;21061;-92
2023/01/01 15:32:42;;;;;;;19.92;12.78;;;;;;;14.72;72.91;100595.11;2714399;86;21053;-95
2023/01/01 15:36:44;;;;;;;200.35;123.92;;;;;;;14.61;74.00;100597.91;2688396;86;21079;-93
2023/01/01 15:40:45;;;;;;;265.77;158.87;;;;;;;14.62;73.80;100603.61;2713080;85;21072;-91
2023/01/01 15:44:46;;;;;;;335.95;222.55;;;;;;;14.59;73.88;100605.25;2712125;85;21060;-94
2023/01/01 15:48:51;;;;;;;252.38;160.93;;;;;;;14.58;73.97;100612.45;2713663;86;21049;-93
2023/01/01 15:53:01;;;;;;;248.53;153.17;;;;;;;14.33;75.52;100624.08;2709535;86;21152;-92
2023/01/01 15:57:03;;;;;;;196.55;116.73;;;;;;;14.08;77.40;100622.84;2668333;87;21069;-94
2023/01/01 16:01:11;;;;;;;88.45;57.58;;;;;;;13.95;77.42;100627.11;2686688;87;21062;-95
2023/01/01 16:05:23;;;;;;;85.20;50.60;;;;;;;13.83;77.60;100627.73;2681136;87;21122;-92
2023/01/01 16:09:24;;;;;;;80.65;49.10;;;;;;;13.79;77.37;100629.00;2728423;83;21056;-82
2023/01/01 16:13:25;;;;;;;58.42;37.75;;;;;;;13.77;77.02;100638.52;2901560;80;21006;-82
2023/01/01 16:17:27;;;;;;;54.70;32.70;;;;;;;13.82;76.61;100640.27;2891089;81;20994;-82
2023/01/01 16:21:31;;;;;;;52.08;33.42;;;;;;;13.83;76.43;100632.61;2901532;79;21185;-83
2023/01/01 16:25:32;;;;;;;69.58;38.23;;;;;;;13.83;75.86;100621.91;2868913;80;21006;-83
2023/01/01 16:29:34;;;;;;;49.95;32.33;;;;;;;13.74;76.53;100625.39;2878031;81;21572;-83
2023/01/01 16:33:35;;;;;;;34.78;19.92;;;;;;;13.59;76.76;100620.95;2854593;81;21034;-83
2023/01/01 16:37:36;;;;;;;26.20;14.30;;;;;;;13.45;77.59;100625.33;2878768;80;20999;-83
2023/01/01 16:41:40;;;;;;;25.35;13.28;;;;;;;13.39;77.87;100621.38;2903170;81;21053;-83
2023/01/01 16:45:43;;;;;;;23.65;15.50;;;;;;;13.41;77.76;100616.73;2895447;81;21771;-83
2023/01/01 16:49:45;;;;;;;14.78;9.85;;;;;;;13.48;77.63;100627.25;2877988;81;21557;-83
2023/01/01 16:53:46;;;;;;;15.95;10.03;;;;;;;13.53;77.74;100636.20;2895433;80;21581;-83
2023/01/01 16:57:47;;;;;;;26.15;15.03;;;;;;;13.60;77.34;100650.70;2846871;81;21040;-83
2023/01/01 17:01:49;;;;;;;16.82;11.08;;;;;;;13.67;77.22;100652.34;2887633;81;21058;-83
2023/01/01 17:05:50;;;;;;;12.50;7.85;;;;;;;13.73;77.06;100649.61;2891096;80;21041;-83
2023/01/01 17:09:51;;;;;;;22.00;11.57;;;;;;;13.71;77.48;100655.95;2880417;80;21009;-83
2023/01/01 17:13:52;;;;;;;20.72;10.72;;;;;;;13.60;78.09;100651.20;2867997;82;21156;-83
2023/01/01 17:17:54;;;;;;;15.43;9.48;;;;;;;13.48;78.60;100651.30;2816053;84;21016;-83
2023/01/01 17:21:55;;;;;;;17.98;11.35;;;;;;;13.42;78.85;100635.79;2839916;82;21061;-83
2023/01/01 17:26:06;;;;;;;25.75;13.65;;;;;;;13.42;78.99;100645.14;2818795;84;21062;-83
2023/01/01 17:30:09;;;;;;;26.10;18.07;;;;;;;13.40;78.98;100627.89;2869423;82;21025;-83
2023/01/01 17:34:13;;;;;;;26.05;16.20;;;;;;;13.41;78.97;100631.42;2817076;84;21807;-83
2023/01/01 17:38:14;;;;;;;23.92;15.83;;;;;;;13.41;79.51;100645.62;2869079;82;21592;-83
2023/01/01 17:42:15;;;;;;;23.40;13.48;;;;;;;13.47;79.20;100643.44;2819124;83;21055;-83
2023/01/01 17:46:24;;;;;;;20.32;13.88;;;;;;;13.46;79.35;100645.73;2818538;84;21066;-83
2023/01/01 17:50:25;;;;;;;17.77;12.45;;;;;;;13.39;80.43;100655.60;2867576;82;21065;-83
2023/01/01 17:54:26;;;;;;;18.50;10.95;;;;;;;13.48;79.63;100651.30;2867578;82;21449;-83
2023/01/01 17:58:27;;;;;;;16.75;10.58;;;;;;;13.53;79.16;100661.08;2795695;82;21044;-83
2023/01/01 18:02:28;;;;;;;15.03;10.25;;;;;;;13.59;78.84;100658.88;2867072;82;21627;-82
2023/01/01 18:06:32;;;;;;;16.00;10.68;;;;;;;13.46;79.40;100663.09;2868799;82;21037;-82
2023/01/01 18:10:33;;;;;;;14.55;11.60;;;;;;;13.41;80.20;100660.82;2881202;80;21342;-82
2023/01/01 18:14:34;;;;;;;17.52;10.55;;;;;;;13.30;81.55;100664.44;2894732;81;21011;-82
2023/01/01 18:18:38;;;;;;;16.30;11.43;;;;;;;13.39;81.18;100678.31;2902433;80;21066;-81
2023/01/01 18:22:39;;;;;;;13.62;9.95;;;;;;;13.48;80.73;100683.88;2873616;81;21394;-81
2023/01/01 18:26:40;;;;;;;12.70;8.58;;;;;;;13.56;80.47;100691.58;2905524;80;21014;-81
2023/01/01 18:30:41;;;;;;;14.10;9.68;;;;;;;13.61;79.97;100689.81;2899394;80;21057;-82
2023/01/01 18:34:42;;;;;;;13.78;10.20;;;;;;;13.58;79.96;100690.59;2901808;81;20983;-82
2023/01/01 18:38:51;;;;;;;13.65;9.50;;;;;;;13.55;80.38;100696.53;2870633;80;20999;-81
2023/01/01 18:43:04;;;;;;;15.93;8.70;;;;;;;13.52;81.20;100700.82;2894390;80;21011;-81
2023/01/01 18:47:16;;;;;;;17.23;9.30;;;;;;;13.50;81.80;100700.11;2903544;80;21026;-81
2023/01/01 18:51:23;;;;;;;13.00;8.00;;;;;;;13.52;82.13;100699.48;2904097;81;21073;-81
2023/01/01 18:55:26;;;;;;;11.45;8.93;;;;;;;13.53;82.06;100691.82;2878317;80;21034;-81
2023/01/01 18:59:27;;;;;;;16.17;9.30;;;;;;;13.51;82.53;100700.97;2897090;81;21031;-81
2023/01/01 19:03:29;;;;;;;10.68;8.28;;;;;;;13.50;83.08;100699.28;2888761;80;20987;-81
2023/01/01 19:07:30;;;;;;;11.30;8.65;;;;;;;13.51;83.24;100700.97;2877561;80;20971;-81
2023/01/01 19:11:31;;;;;;;15.25;7.85;;;;;;;13.49;83.30;100701.09;2902220;81;21038;-81
2023/01/01 19:15:32;;;;;;;10.93;8.55;;;;;;;13.55;82.81;100709.90;2879726;81;21052;-81
2023/01/01 19:19:38;;;;;;;11.65;9.18;;;;;;;13.62;82.62;100702.70;2896982;81;21006;-82
2023/01/01 19:23:57;;;;;;;14.75;10.25;;;;;;;13.63;82.46;100705.22;2794717;85;21015;-81
2023/01/01 19:28:12;;;;;;;15.45;9.60;;;;;;;13.70;82.38;100705.53;2800912;84;21075;-81
2023/01/01 19:32:14;;;;;;;10.65;8.30;;;;;;;13.75;82.16;100704.62;2791540;84;21074;-82